createdAt,value
2023-03-21T00:02:10.204Z,21.00
2023-03-21T00:04:51.337Z,25.73
2023-03-21T00:07:25.097Z,17.48
2023-03-21T00:10:08.626Z,16.90
2023-03-21T00:12:50.327Z,19.40
2023-03-21T00:15:30.705Z,16.25
2023-03-21T00:18:11.451Z,16.52
2023-03-21T00:20:47.281Z,16.08
2023-03-21T00:23:19.874Z,15.57
2023-03-21T00:25:52.461Z,17.15
2023-03-21T00:28:25.393Z,13.75
2023-03-21T00:31:00.255Z,20.20
2023-03-21T00:33:32.855Z,18.55
2023-03-21T00:36:06.348Z,14.88
2023-03-21T00:38:39.832Z,19.40
2023-03-21T00:41:25.902Z,19.35
2023-03-21T00:44:07.191Z,21.15
2023-03-21T00:46:54.464Z,16.92
2023-03-21T00:49:33.520Z,19.15
2023-03-21T00:52:17.032Z,24.25
2023-03-21T00:54:52.993Z,18.27
2023-03-21T00:57:38.061Z,20.65
2023-03-21T01:00:13.281Z,15.38
2023-03-21T01:03:02.688Z,18.73
2023-03-21T01:05:56.499Z,21.80
2023-03-21T01:08:35.297Z,23.10
2023-03-21T01:11:16.272Z,16.60
2023-03-21T01:13:59.771Z,15.55
2023-03-21T01:16:34.686Z,18.80
2023-03-21T01:19:22.107Z,17.63
2023-03-21T01:21:58.096Z,21.50
2023-03-21T01:24:32.316Z,15.63
2023-03-21T01:27:05.900Z,18.45
2023-03-21T01:29:38.645Z,18.08
2023-03-21T01:32:11.243Z,13.50
2023-03-21T01:34:45.601Z,21.20
2023-03-21T01:37:19.897Z,17.40
2023-03-21T01:39:54.749Z,13.82
2023-03-21T01:42:27.946Z,15.48
2023-03-21T01:45:01.638Z,19.35
2023-03-21T01:47:42.490Z,18.52
2023-03-21T01:50:29.790Z,13.43
2023-03-21T01:53:23.746Z,17.88
2023-03-21T01:55:57.507Z,16.10
2023-03-21T01:58:50.498Z,13.52
2023-03-21T02:01:34.738Z,12.90
2023-03-21T02:04:09.031Z,23.13
2023-03-21T02:07:10.793Z,18.73
2023-03-21T02:09:52.274Z,14.45
2023-03-21T02:12:27.828Z,19.20
2023-03-21T02:15:01.078Z,20.80
2023-03-21T02:18:02.232Z,19.73
2023-03-21T02:20:58.448Z,23.02
2023-03-21T02:23:58.947Z,15.15
2023-03-21T02:26:52.505Z,15.90
2023-03-21T02:29:50.210Z,16.42
2023-03-21T02:32:36.982Z,22.25
2023-03-21T02:35:25.900Z,20.92
2023-03-21T02:38:01.571Z,21.30
2023-03-21T02:40:40.616Z,20.85
2023-03-21T02:43:23.118Z,27.27
2023-03-21T02:45:59.259Z,25.60
2023-03-21T02:48:44.503Z,19.10
2023-03-21T02:51:23.916Z,21.90
2023-03-21T02:54:26.139Z,20.15
2023-03-21T02:56:53.392Z,19.70
2023-03-21T02:59:28.137Z,18.10
2023-03-21T03:02:04.074Z,23.77
2023-03-21T03:04:36.884Z,23.38
2023-03-21T03:07:17.731Z,21.30
2023-03-21T03:10:00.210Z,17.20
2023-03-21T03:12:36.525Z,13.80
2023-03-21T03:15:17.776Z,16.58
2023-03-21T03:17:53.082Z,19.30
2023-03-21T03:20:29.423Z,16.88
2023-03-21T03:23:09.661Z,19.35
2023-03-21T03:25:47.736Z,17.00
2023-03-21T03:28:23.939Z,21.20
2023-03-21T03:31:08.632Z,24.40
2023-03-21T03:33:51.930Z,22.85
2023-03-21T03:36:32.013Z,20.23
2023-03-21T03:39:10.550Z,26.95
2023-03-21T03:44:46.070Z,20.83
2023-03-21T03:47:32.177Z,21.98
2023-03-21T03:50:10.209Z,23.33
2023-03-21T03:52:55.590Z,27.58
2023-03-21T03:55:34.461Z,23.80
2023-03-21T03:58:23.181Z,25.00
2023-03-21T04:00:57.872Z,27.25
2023-03-21T04:03:36.628Z,21.75
2023-03-21T04:06:19.550Z,23.80
2023-03-21T04:11:26.180Z,19.42
2023-03-21T04:14:02.267Z,25.13
2023-03-21T04:16:35.909Z,22.20
2023-03-21T04:19:09.283Z,26.40
2023-03-21T04:21:43.182Z,23.10
2023-03-21T04:24:17.183Z,20.88
2023-03-21T04:26:53.810Z,22.70
2023-03-21T04:29:40.312Z,19.83
2023-03-21T04:32:40.060Z,21.23
2023-03-21T04:35:17.508Z,20.95
2023-03-21T04:37:50.282Z,19.52
2023-03-21T04:40:25.119Z,18.80
2023-03-21T04:43:01.133Z,18.02
2023-03-21T04:45:38.264Z,21.33
2023-03-21T04:48:14.035Z,19.73
2023-03-21T04:50:46.902Z,23.52
2023-03-21T04:53:22.221Z,21.67
2023-03-21T04:55:55.633Z,18.17
2023-03-21T04:58:28.389Z,17.98
2023-03-21T05:01:02.486Z,16.80
2023-03-21T05:03:40.178Z,23.65
2023-03-21T05:06:13.170Z,17.33
2023-03-21T05:08:46.960Z,15.40
2023-03-21T05:11:19.703Z,15.88
2023-03-21T05:13:52.433Z,17.48
2023-03-21T05:16:30.344Z,16.55
2023-03-21T05:19:05.085Z,21.75
2023-03-21T05:21:43.337Z,18.38
2023-03-21T05:24:22.060Z,18.38
2023-03-21T05:27:01.912Z,20.15
2023-03-21T05:29:36.390Z,20.95
2023-03-21T05:32:13.461Z,18.15
2023-03-21T05:34:46.205Z,12.60
2023-03-21T05:37:19.014Z,23.55
2023-03-21T05:39:54.645Z,17.77
2023-03-21T05:42:32.964Z,17.63
2023-03-21T05:45:08.395Z,18.35
2023-03-21T05:47:43.000Z,18.50
2023-03-21T05:50:21.284Z,15.35
2023-03-21T05:53:07.740Z,16.38
2023-03-21T05:55:40.888Z,18.63
2023-03-21T05:58:18.789Z,21.35
2023-03-21T06:00:55.704Z,18.40
2023-03-21T06:03:37.354Z,19.33
2023-03-21T06:06:19.015Z,15.73
2023-03-21T06:08:59.291Z,16.05
2023-03-21T06:11:34.473Z,14.75
2023-03-21T06:14:22.251Z,12.88
2023-03-21T06:17:12.191Z,14.93
2023-03-21T06:19:53.350Z,17.23
2023-03-21T06:22:36.636Z,17.48
2023-03-21T06:25:10.186Z,19.27
2023-03-21T06:27:42.850Z,15.52
2023-03-21T06:30:16.333Z,14.30
2023-03-21T06:33:01.047Z,17.30
2023-03-21T06:35:35.145Z,9.88
2023-03-21T06:38:08.451Z,19.67
2023-03-21T06:40:41.133Z,17.23
2023-03-21T06:43:16.528Z,19.15
2023-03-21T06:45:49.638Z,19.75
2023-03-21T06:48:22.589Z,18.45
2023-03-21T06:50:57.808Z,8.75
2023-03-21T06:53:35.649Z,14.18
2023-03-21T06:56:29.968Z,18.38
2023-03-21T06:59:03.319Z,16.20
2023-03-21T07:04:31.618Z,14.73
2023-03-21T07:07:05.898Z,20.63
2023-03-21T07:09:38.695Z,16.15
2023-03-21T07:12:12.478Z,13.75
2023-03-21T07:14:58.751Z,14.88
2023-03-21T07:17:31.953Z,18.27
2023-03-21T07:20:07.846Z,17.92
2023-03-21T07:22:41.906Z,18.60
2023-03-21T07:25:17.206Z,18.90
2023-03-21T07:27:49.894Z,16.05
2023-03-21T07:30:23.512Z,17.58
2023-03-21T07:32:56.129Z,14.48
2023-03-21T07:35:28.668Z,16.55
2023-03-21T07:38:02.967Z,14.85
2023-03-21T07:40:36.261Z,17.90
2023-03-21T07:43:09.320Z,16.40
2023-03-21T07:45:42.545Z,12.82
2023-03-21T07:48:17.353Z,12.65
2023-03-21T07:53:23.936Z,18.10
2023-03-21T07:55:57.093Z,19.87
2023-03-21T07:58:29.712Z,18.42
2023-03-21T08:01:03.093Z,13.25
2023-03-21T08:03:35.743Z,16.92
2023-03-21T08:06:08.882Z,21.58
2023-03-21T08:08:42.850Z,15.20
2023-03-21T08:11:15.545Z,17.98
2023-03-21T08:13:48.193Z,12.38
2023-03-21T08:16:21.519Z,21.95
2023-03-21T08:18:54.449Z,18.45
2023-03-21T08:21:27.251Z,17.88
2023-03-21T08:24:01.283Z,19.08
2023-03-21T08:26:34.160Z,14.97
2023-03-21T08:29:06.903Z,19.27
2023-03-21T08:31:40.712Z,17.75
2023-03-21T08:34:13.637Z,13.43
2023-03-21T08:36:47.134Z,18.23
2023-03-21T08:39:21.746Z,21.88
2023-03-21T08:41:54.727Z,13.85
2023-03-21T08:44:27.354Z,14.48
2023-03-21T08:46:59.917Z,19.15
2023-03-21T08:49:32.498Z,15.55
2023-03-21T08:52:06.103Z,18.45
2023-03-21T08:54:41.707Z,16.65
2023-03-21T08:57:14.936Z,10.38
2023-03-21T08:59:47.577Z,15.20
2023-03-21T09:02:20.173Z,11.57
2023-03-21T09:04:54.755Z,12.25
2023-03-21T09:07:27.828Z,11.32
2023-03-21T09:10:20.293Z,12.00
2023-03-21T09:12:55.334Z,13.25
2023-03-21T09:15:29.423Z,12.40
2023-03-21T09:18:12.912Z,8.67
2023-03-21T09:20:46.603Z,14.77
2023-03-21T09:23:19.754Z,19.65
2023-03-21T09:25:53.862Z,17.48
2023-03-21T09:28:27.546Z,9.18
2023-03-21T09:31:02.600Z,12.13
2023-03-21T09:33:35.982Z,9.57
2023-03-21T09:36:14.348Z,10.05
2023-03-21T09:38:47.899Z,10.63
2023-03-21T09:41:27.289Z,17.73
2023-03-21T09:44:08.063Z,11.90
2023-03-21T09:46:43.734Z,14.13
2023-03-21T09:49:18.811Z,11.38
2023-03-21T09:51:54.227Z,13.65
2023-03-21T09:54:28.038Z,13.57
2023-03-21T09:57:05.431Z,12.45
2023-03-21T09:59:41.112Z,11.55
2023-03-21T10:02:22.646Z,12.32
2023-03-21T10:04:55.659Z,10.45
2023-03-21T10:07:30.852Z,9.57
2023-03-21T10:10:04.440Z,8.20
2023-03-21T10:12:38.733Z,10.90
2023-03-21T10:15:14.569Z,11.73
2023-03-21T10:17:50.261Z,10.35
2023-03-21T10:20:24.496Z,8.98
2023-03-21T10:22:57.901Z,11.85
2023-03-21T10:25:32.565Z,8.40
2023-03-21T10:28:07.735Z,11.32
2023-03-21T10:30:42.140Z,11.40
2023-03-21T10:33:16.413Z,11.02
2023-03-21T10:35:51.541Z,12.13
2023-03-21T10:38:24.913Z,15.30
2023-03-21T10:40:57.911Z,12.05
2023-03-21T10:43:37.685Z,12.38
2023-03-21T10:46:13.453Z,13.00
2023-03-21T10:48:52.319Z,10.23
2023-03-21T10:51:28.109Z,11.88
2023-03-21T10:54:01.691Z,12.70
2023-03-21T10:56:37.334Z,11.80
2023-03-21T10:59:19.491Z,14.35
2023-03-21T11:01:55.488Z,13.90
2023-03-21T11:04:30.362Z,13.18
2023-03-21T11:09:53.752Z,12.85
2023-03-21T11:12:30.438Z,10.30
2023-03-21T11:15:25.685Z,14.20
2023-03-21T11:17:58.359Z,14.00
2023-03-21T11:20:32.090Z,7.82
2023-03-21T11:23:04.665Z,14.35
2023-03-21T11:25:39.212Z,10.07
2023-03-21T11:28:14.320Z,15.68
2023-03-21T11:30:52.705Z,10.98
2023-03-21T11:33:28.012Z,10.50
2023-03-21T11:36:02.060Z,20.88
2023-03-21T11:38:37.698Z,10.90
2023-03-21T11:41:10.423Z,13.00
2023-03-21T11:43:51.779Z,11.85
2023-03-21T11:46:26.795Z,10.85
2023-03-21T11:51:35.449Z,13.23
2023-03-21T11:54:11.130Z,7.72
2023-03-21T11:56:45.791Z,9.30
2023-03-21T11:59:30.770Z,7.32
2023-03-21T12:02:26.029Z,7.65
2023-03-21T12:05:03.561Z,7.78
2023-03-21T12:07:42.617Z,8.35
2023-03-21T12:10:29.604Z,6.07
2023-03-21T12:13:08.969Z,7.95
2023-03-21T12:15:44.481Z,6.68
2023-03-21T12:18:22.459Z,7.22
2023-03-21T12:20:56.635Z,4.75
2023-03-21T12:23:34.535Z,7.88
2023-03-21T12:26:13.000Z,9.05
2023-03-21T12:28:52.323Z,7.45
2023-03-21T12:31:29.703Z,8.60
2023-03-21T12:34:13.426Z,6.22
2023-03-21T12:36:52.939Z,5.55
2023-03-21T12:39:29.367Z,6.18
2023-03-21T12:42:09.409Z,6.70
2023-03-21T12:44:44.469Z,8.13
2023-03-21T12:47:18.604Z,5.28
2023-03-21T12:49:55.380Z,7.88
2023-03-21T12:52:30.263Z,7.43
2023-03-21T12:55:06.068Z,7.65
2023-03-21T12:57:47.825Z,10.13
2023-03-21T13:00:29.575Z,5.53
2023-03-21T13:03:04.127Z,8.75
2023-03-21T13:05:39.742Z,9.65
2023-03-21T13:08:15.529Z,5.68
2023-03-21T13:10:48.352Z,6.43
2023-03-21T13:13:24.169Z,7.80
2023-03-21T13:16:00.377Z,6.85
2023-03-21T13:18:43.021Z,8.93
2023-03-21T13:21:22.468Z,5.68
2023-03-21T13:24:02.625Z,7.45
2023-03-21T13:26:38.885Z,6.05
2023-03-21T13:29:15.724Z,8.25
2023-03-21T13:31:52.413Z,3.53
2023-03-21T13:34:26.637Z,2.72
2023-03-21T13:37:01.997Z,6.18
2023-03-21T13:39:34.627Z,4.55
2023-03-21T13:42:14.306Z,4.32
2023-03-21T13:44:50.375Z,5.95
2023-03-21T13:47:41.052Z,5.03
2023-03-21T13:50:29.270Z,5.53
2023-03-21T13:53:20.467Z,4.15
2023-03-21T13:58:53.805Z,4.78
2023-03-21T14:01:32.562Z,4.60
2023-03-21T14:04:07.174Z,3.83
2023-03-21T14:06:43.761Z,3.42
2023-03-21T14:09:20.467Z,5.63
2023-03-21T14:11:56.609Z,5.43
2023-03-21T14:14:36.038Z,4.28
2023-03-21T14:17:14.645Z,4.93
2023-03-21T14:19:47.361Z,5.53
2023-03-21T14:22:20.083Z,4.30
2023-03-21T14:24:56.406Z,6.35
2023-03-21T14:27:31.409Z,4.78
2023-03-21T14:30:06.246Z,6.40
2023-03-21T14:35:12.352Z,4.10
2023-03-21T14:37:46.746Z,5.47
2023-03-21T14:40:24.061Z,5.97
2023-03-21T14:42:56.763Z,3.60
2023-03-21T14:45:31.013Z,5.40
2023-03-21T14:48:05.813Z,7.82
2023-03-21T14:53:15.294Z,4.75
2023-03-21T14:55:51.389Z,5.95
2023-03-21T14:58:24.365Z,4.53
2023-03-21T15:01:01.646Z,5.90
2023-03-21T15:03:34.573Z,5.32
2023-03-21T15:06:13.003Z,2.75
2023-03-21T15:08:54.872Z,4.78
2023-03-21T15:11:31.137Z,7.22
2023-03-21T15:14:04.755Z,4.55
2023-03-21T15:16:39.077Z,3.28
2023-03-21T15:19:15.636Z,4.68
2023-03-21T15:21:50.055Z,5.22
2023-03-21T15:24:24.261Z,6.97
2023-03-21T15:26:59.020Z,6.53
2023-03-21T15:32:13.862Z,5.03
2023-03-21T15:34:47.036Z,4.10
2023-03-21T15:37:22.329Z,3.47
2023-03-21T15:39:55.617Z,4.75
2023-03-21T15:42:31.001Z,6.60
2023-03-21T15:45:04.495Z,6.95
2023-03-21T15:47:42.262Z,2.67
2023-03-21T15:50:18.382Z,4.55
2023-03-21T15:52:51.962Z,5.07
2023-03-21T15:55:29.890Z,4.47
2023-03-21T15:58:05.768Z,7.22
2023-03-21T16:00:40.866Z,6.38
2023-03-21T16:03:18.108Z,4.68
2023-03-21T16:06:04.087Z,4.28
2023-03-21T16:08:38.014Z,4.97
2023-03-21T16:11:15.990Z,6.20
2023-03-21T16:13:52.333Z,6.43
2023-03-21T16:16:26.781Z,4.47
2023-03-21T16:19:04.422Z,7.28
2023-03-21T16:21:38.291Z,4.60
2023-03-21T16:24:12.339Z,4.75
2023-03-21T16:26:47.536Z,5.28
2023-03-21T16:29:20.835Z,6.10
2023-03-21T16:31:53.624Z,5.03
2023-03-21T16:34:28.558Z,5.60
2023-03-21T16:37:01.209Z,5.35
2023-03-21T16:39:33.822Z,5.20
2023-03-21T16:42:06.714Z,5.53
2023-03-21T16:44:40.120Z,6.45
2023-03-21T16:47:14.842Z,5.15
2023-03-21T16:49:48.880Z,4.30
2023-03-21T16:52:21.568Z,5.70
2023-03-21T16:54:54.244Z,4.40
2023-03-21T16:57:28.593Z,5.22
2023-03-21T17:00:01.357Z,5.43
2023-03-21T17:02:34.100Z,6.10
2023-03-21T17:05:08.458Z,5.63
2023-03-21T17:07:41.773Z,4.55
2023-03-21T17:10:17.464Z,7.10
2023-03-21T17:12:50.245Z,7.13
2023-03-21T17:15:23.008Z,4.88
2023-03-21T17:17:56.283Z,5.28
2023-03-21T17:20:32.420Z,5.90
2023-03-21T17:23:05.722Z,6.57
2023-03-21T17:25:38.373Z,4.43
2023-03-21T17:28:11.084Z,5.85
2023-03-21T17:30:44.397Z,5.75
2023-03-21T17:33:17.510Z,5.35
2023-03-21T17:35:51.659Z,5.40
2023-03-21T17:38:24.715Z,7.18
2023-03-21T17:41:00.106Z,7.85
2023-03-21T17:43:33.143Z,5.38
2023-03-21T17:46:06.129Z,5.28
2023-03-21T17:48:39.046Z,6.95
2023-03-21T17:51:15.959Z,4.93
2023-03-21T17:53:49.237Z,10.43
2023-03-21T17:56:23.001Z,5.28
2023-03-21T17:58:55.615Z,5.47
2023-03-21T18:01:30.790Z,9.95
2023-03-21T18:04:04.999Z,6.07
2023-03-21T18:06:39.121Z,6.97
2023-03-21T18:09:12.293Z,5.03
2023-03-21T18:11:46.099Z,9.35
2023-03-21T18:14:27.085Z,5.00
2023-03-21T18:17:01.315Z,6.13
2023-03-21T18:19:38.148Z,5.22
2023-03-21T18:22:12.486Z,4.82
2023-03-21T18:24:46.023Z,4.88
2023-03-21T18:27:19.030Z,6.32
2023-03-21T18:30:25.947Z,4.45
2023-03-21T18:32:44.885Z,6.30
2023-03-21T18:35:19.884Z,5.85
2023-03-21T18:37:53.956Z,11.05
2023-03-21T18:40:27.564Z,7.67
2023-03-21T18:45:53.278Z,6.65
2023-03-21T18:48:26.141Z,7.05
2023-03-21T18:50:58.870Z,6.45
2023-03-21T18:53:32.885Z,5.78
2023-03-21T18:56:09.826Z,5.93
2023-03-21T18:58:44.801Z,5.30
2023-03-21T19:01:17.954Z,8.52
2023-03-21T19:04:11.812Z,6.20
2023-03-21T19:06:43.294Z,6.00
2023-03-21T19:09:18.131Z,10.38
2023-03-21T19:11:51.688Z,7.00
2023-03-21T19:14:24.297Z,9.05
2023-03-21T19:17:55.763Z,9.70
2023-03-21T19:19:52.248Z,7.28
2023-03-21T19:22:25.325Z,7.45
2023-03-21T19:24:59.384Z,7.68
2023-03-21T19:27:34.416Z,8.52
2023-03-21T19:30:14.477Z,8.88
2023-03-21T19:32:51.562Z,9.80
2023-03-21T19:35:24.254Z,6.70
2023-03-21T19:37:56.924Z,7.53
2023-03-21T19:40:32.127Z,7.70
2023-03-21T19:43:29.794Z,10.10
2023-03-21T19:45:57.952Z,9.60
2023-03-21T19:48:31.926Z,7.57
2023-03-21T19:53:57.506Z,8.85
2023-03-21T19:56:31.944Z,8.57
2023-03-21T19:59:04.918Z,6.65
2023-03-21T20:01:38.071Z,8.25
2023-03-21T20:04:10.792Z,9.13
2023-03-21T20:06:43.470Z,8.75
2023-03-21T20:09:50.490Z,7.57
2023-03-21T20:12:11.307Z,8.02
2023-03-21T20:14:47.588Z,8.48
2023-03-21T20:17:20.267Z,6.45
2023-03-21T20:19:57.829Z,5.97
2023-03-21T20:22:58.867Z,5.95
2023-03-21T20:25:23.296Z,7.47
2023-03-21T20:28:14.617Z,7.40
2023-03-21T20:30:48.676Z,6.70
2023-03-21T20:33:21.561Z,8.27
2023-03-21T20:38:52.602Z,12.85
2023-03-21T20:41:25.327Z,24.15
2023-03-21T20:46:53.707Z,16.88
2023-03-21T20:49:26.697Z,15.63
2023-03-21T20:54:52.282Z,14.43
2023-03-21T20:57:26.961Z,14.48
2023-03-21T21:02:34.370Z,9.52
2023-03-21T21:08:02.906Z,11.07
2023-03-21T21:13:26.521Z,13.25
2023-03-21T21:15:59.195Z,15.10
2023-03-21T21:18:33.399Z,11.40
2023-03-21T21:21:07.198Z,11.40
2023-03-21T21:23:40.478Z,19.20
2023-03-21T21:26:13.746Z,16.58
2023-03-21T21:28:47.436Z,13.65
2023-03-21T21:31:20.349Z,14.75
2023-03-21T21:33:54.412Z,16.27
2023-03-21T21:36:27.136Z,16.30
2023-03-21T21:39:00.817Z,16.52
2023-03-21T21:41:33.505Z,16.70
2023-03-21T21:44:06.671Z,18.08
2023-03-21T21:46:39.681Z,28.65
2023-03-21T21:49:13.755Z,25.10
2023-03-21T21:51:48.102Z,16.60
2023-03-21T21:54:20.887Z,11.13
2023-03-21T21:56:54.043Z,11.77
2023-03-21T21:59:27.402Z,12.70
2023-03-21T22:02:00.138Z,9.98
2023-03-21T22:04:34.710Z,14.35
2023-03-21T22:07:14.030Z,13.32
2023-03-21T22:09:47.694Z,15.65
2023-03-21T22:12:20.697Z,11.65
2023-03-21T22:14:53.315Z,16.50
2023-03-21T22:17:26.164Z,7.90
2023-03-21T22:20:05.472Z,14.00
2023-03-21T22:22:40.491Z,9.88
2023-03-21T22:25:14.260Z,9.27
2023-03-21T22:27:47.110Z,9.95
2023-03-21T22:30:19.915Z,12.35
2023-03-21T22:33:08.141Z,9.27
2023-03-21T22:35:41.708Z,6.40
2023-03-21T22:38:17.876Z,8.07
2023-03-21T22:40:54.000Z,10.20
2023-03-21T22:43:28.519Z,9.30
2023-03-21T22:46:01.768Z,9.63
2023-03-21T22:48:34.730Z,13.25
2023-03-21T22:51:07.626Z,9.63
2023-03-21T22:53:41.628Z,10.15
2023-03-21T22:56:14.480Z,7.10
2023-03-21T22:58:47.129Z,12.50
2023-03-21T23:01:19.860Z,5.95
2023-03-21T23:03:52.901Z,9.25
2023-03-21T23:06:26.015Z,8.57
2023-03-21T23:09:00.115Z,8.13
2023-03-21T23:11:32.824Z,8.48
2023-03-21T23:14:08.290Z,8.70
2023-03-21T23:16:41.425Z,7.22
2023-03-21T23:19:14.208Z,5.88
2023-03-21T23:21:47.000Z,7.68
2023-03-21T23:24:20.976Z,11.07
2023-03-21T23:26:53.932Z,6.43
2023-03-21T23:29:26.540Z,8.73
2023-03-21T23:31:59.179Z,5.65
2023-03-21T23:34:32.184Z,8.18
2023-03-21T23:37:04.923Z,7.05
2023-03-21T23:39:39.311Z,6.78
2023-03-21T23:42:12.261Z,6.05
2023-03-21T23:44:44.918Z,8.63
2023-03-21T23:47:17.775Z,10.15
2023-03-21T23:49:52.848Z,8.45
2023-03-21T23:52:25.532Z,7.72
2023-03-21T23:54:59.897Z,8.32
2023-03-21T23:57:33.010Z,9.50
